SKBGSKCC

Guest
Details From SKBG - PALONEGRO
To SKCC - CAMILO DAZA
Flight Number -
Tags generated
Created
Modified
Stats Distance 63 nm / 116 km
Max Altitude 6,300 ft / 1,920 m
Waypoints 3
Social Downloads 1
Likes 0
Share VATSIM

Download

Looking for another format? Having issues loading an existing format? Contact us
Advertisement - Login to hide

Notes

Basic altitude profile: - Ascent Rate: 2500ft/min - Ascent Speed: 250kts - Cruise Altitude: 25000ft - Cruise Speed: 300kts - Descent Rate: 1500ft/min - Descent Speed: 250kts Options: - Use NATs: yes - Use PACOTS: yes - Use low airways: yes - Use high airways: yes

Route

SKBG ARENA SKCC

ID Type Via Altitude Latitude Longitude Leg Dist Tot Dist Heading (true) Name
O SKBG APT - 0 ft / 0 m 7.12650˚ -73.18476˚ - 0 nm - PALONEGRO
ARENA FIX - 6,300 ft / 1,920 m 7.55083˚ -72.83417˚ 32 nm 32 nm 39° / 39° -
O SKCC APT - 0 ft / 0 m 7.92881˚ -72.51292˚ 29 nm 62 nm 40° / 40° CAMILO DAZA

Altitude Profile

Advertisement - Login to hide

SKBG

Details ICAO SKBG (BGA)
Name PALONEGRO
Region Colombia
Timezone America/Bogota (UTC-5.0)
Stats Elevation 3,896 ft / 1,188 m (AMSL)
Location 7.126500° -73.184764°
Runways 1
Magnetic Variation 8.231° W

METAR

SKBG 150000Z 33005KT 5000 BCFG SCT008 20/20 A2996

Decode

TAF

TAF TAF SKBG 141700Z 141818 32014KT 9999 SCT010 SCT080 TEMPO 1420/1423 8000 RA SCT015TCU PROB40 TEMPO 1500/1503 4000 BCFG SCT010 TEMPO 1510/1513 00000KT 2000 BR SCT007 TX25/1418Z TN17/1511Z

Decode

Departure Runways

ID Width Length Bearing (true) Bearing (mag) Surface Threshold Offset Overrun Length
16 164 ft / 50 m 7,452 ft / 2,271 m 159.37° 167.60° Asphalt 0 ft / 0 m 0 ft / 0 m
34 164 ft / 50 m 7,452 ft / 2,271 m 339.37° 347.60° Asphalt 0 ft / 0 m 0 ft / 0 m

SKCC

Details ICAO SKCC (CUC)
Name CAMILO DAZA
Region Colombia
Timezone America/Bogota (UTC-5.0)
Stats Elevation 1,096 ft / 334 m (AMSL)
Location 7.928813° -72.512920°
Runways 2
Magnetic Variation 8.765° W

METAR

SKCC 150000Z VRB02KT 9999 SCT020 SCT080 26/21 A2991

Decode

TAF

TAF SKCC 141700Z 141818 03004KT 9999 SCT015 TEMPO 1419/1422 36012KT 9000 RA SCT020TCU BKN070 TEMPO 1500/1502 8000 VCFG SCT017 TEMPO 1510/1512 5000 BCFG SCT010 BECMG 1515/1517 36012KT TX30/1418Z TN23/1511Z

Decode

Destination Runways

ID Width Length Bearing (true) Bearing (mag) Surface Threshold Offset Overrun Length
02 148 ft / 45 m 6,371 ft / 1,942 m 16.91° 25.67° Asphalt 0 ft / 0 m 0 ft / 0 m
16 148 ft / 45 m 7,724 ft / 2,354 m 147.88° 156.64° Asphalt 0 ft / 0 m 0 ft / 0 m
20 148 ft / 45 m 6,371 ft / 1,942 m 196.91° 205.67° Asphalt 0 ft / 0 m 0 ft / 0 m
34 148 ft / 45 m 7,724 ft / 2,354 m 327.88° 336.64° Asphalt 0 ft / 0 m 0 ft / 0 m

Approach Navaids

Runway Type Ident Frequency Range Bearing (true) Bearing (mag) Slope Elevation
16 Localiser ICUC 109.90 MHz 18 nm / 33 km 148.07° 156.83° - 1,096 ft / 334 m (AMSL)
16 Glidescope ICUC 109.90 MHz 10 nm / 19 km 147.88° 156.64° 3.50° 1,096 ft / 334 m (AMSL)

Popular Alternatives